Time;durP1;ratioP1;P1;durP2;ratioP2;P2;SDS_P1;SDS_P2;PMS_P1;PMS_P2;Temp;Humidity;BMP_temperature;BMP_pressure;BME280_temperature;BME280_humidity;BME280_pressure;Samples;Min_cycle;Max_cycle;Signal;HPM_P1;HPM_P2
2023/03/21 00:00:39;;;;;;;13.53;6.90;;;;;;;;;;4996148;28;20243;-70
2023/03/21 00:03:07;;;;;;;13.47;6.93;;;;;;;;;;4988988;28;20238;-70
2023/03/21 00:05:40;;;;;;;12.37;6.93;;;;;;;;;;5020374;28;20331;-70
2023/03/21 00:08:07;;;;;;;10.27;6.17;;;;;;;;;;5021402;28;20257;-70
2023/03/21 00:10:34;;;;;;;11.07;6.10;;;;;;;;;;5005901;28;20231;-70
2023/03/21 00:13:12;;;;;;;10.20;6.23;;;;;;;;;;4986190;28;20226;-70
2023/03/21 00:15:49;;;;;;;11.50;6.37;;;;;;;;;;4996336;28;20714;-70
2023/03/21 00:18:40;;;;;;;9.30;6.13;;;;;;;;;;4999509;28;20219;-70
2023/03/21 00:21:08;;;;;;;9.30;5.57;;;;;;;;;;5002413;28;20323;-70
2023/03/21 00:23:55;;;;;;;9.97;6.30;;;;;;;;;;5002723;28;20235;-70
2023/03/21 00:26:22;;;;;;;8.90;5.27;;;;;;;;;;5003199;28;20227;-70
2023/03/21 00:28:49;;;;;;;8.37;5.53;;;;;;;;;;5001875;28;20238;-70
2023/03/21 00:31:16;;;;;;;8.83;5.67;;;;;;;;;;4997966;28;20230;-70
2023/03/21 00:33:42;;;;;;;8.40;5.40;;;;;;;;;;4997687;28;20675;-70
2023/03/21 00:36:09;;;;;;;10.87;5.70;;;;;;;;;;4984759;28;20232;-70
2023/03/21 00:38:36;;;;;;;9.40;6.03;;;;;;;;;;4976415;28;20296;-70
2023/03/21 00:41:06;;;;;;;8.37;5.27;;;;;;;;;;4979093;28;20223;-70
2023/03/21 00:43:50;;;;;;;11.23;5.73;;;;;;;;;;4995481;28;21031;-70
2023/03/21 00:46:17;;;;;;;8.73;5.70;;;;;;;;;;5002117;28;20593;-69
2023/03/21 00:48:44;;;;;;;8.20;5.27;;;;;;;;;;5000143;28;20246;-70
2023/03/21 00:51:14;;;;;;;9.17;5.63;;;;;;;;;;5002844;28;20234;-70
2023/03/21 00:53:41;;;;;;;11.07;6.67;;;;;;;;;;4996137;28;20307;-70
2023/03/21 00:56:07;;;;;;;8.50;5.70;;;;;;;;;;4998955;28;20234;-70
2023/03/21 00:58:34;;;;;;;12.33;6.77;;;;;;;;;;5015694;28;20265;-70
2023/03/21 01:01:01;;;;;;;10.27;6.20;;;;;;;;;;5007593;28;20231;-70
2023/03/21 01:03:28;;;;;;;9.47;6.07;;;;;;;;;;5020624;28;20601;-70
2023/03/21 01:06:04;;;;;;;9.40;5.60;;;;;;;;;;5024959;28;20600;-70
2023/03/21 01:08:35;;;;;;;10.00;6.20;;;;;;;;;;5025169;28;20337;-70
2023/03/21 01:11:18;;;;;;;10.50;5.57;;;;;;;;;;5025493;28;20301;-70
2023/03/21 01:13:44;;;;;;;8.43;5.43;;;;;;;;;;5020232;28;20334;-70
2023/03/21 01:16:22;;;;;;;10.37;6.27;;;;;;;;;;5012247;28;20628;-70
2023/03/21 01:18:49;;;;;;;10.37;5.87;;;;;;;;;;4982272;28;20241;-70
2023/03/21 01:21:15;;;;;;;8.70;5.83;;;;;;;;;;5004644;28;20290;-70
2023/03/21 01:23:42;;;;;;;10.03;5.93;;;;;;;;;;5010510;28;20314;-70
2023/03/21 01:26:09;;;;;;;8.07;5.23;;;;;;;;;;4999750;28;20315;-70
2023/03/21 01:28:36;;;;;;;9.80;5.90;;;;;;;;;;4989081;28;20239;-70
2023/03/21 01:31:03;;;;;;;8.23;4.97;;;;;;;;;;4997983;28;20572;-70
2023/03/21 01:33:30;;;;;;;7.80;5.63;;;;;;;;;;4997609;28;20231;-70
2023/03/21 01:35:57;;;;;;;8.03;5.33;;;;;;;;;;5014000;28;20231;-70
2023/03/21 01:38:38;;;;;;;8.17;5.60;;;;;;;;;;5013554;28;20234;-70
2023/03/21 01:41:05;;;;;;;8.07;5.27;;;;;;;;;;5004048;28;20229;-70
2023/03/21 02:15:39;;;;;;;11.27;6.20;;;;;;;;;;5023098;28;20229;-70
2023/03/21 02:18:23;;;;;;;11.30;6.43;;;;;;;;;;4997626;28;20239;-70
2023/03/21 02:20:51;;;;;;;11.10;6.73;;;;;;;;;;5003637;28;20325;-70
2023/03/21 02:23:41;;;;;;;10.97;6.67;;;;;;;;;;4992491;28;20231;-70
2023/03/21 02:26:28;;;;;;;11.27;6.30;;;;;;;;;;5028648;28;20231;-70
2023/03/21 02:29:16;;;;;;;9.03;6.07;;;;;;;;;;5008173;28;20257;-70
2023/03/21 02:32:21;;;;;;;11.27;6.77;;;;;;;;;;5011634;28;20352;-70
2023/03/21 02:35:22;;;;;;;12.57;7.17;;;;;;;;;;4938831;28;20298;-70
2023/03/21 02:37:54;;;;;;;13.97;7.67;;;;;;;;;;4941763;28;20966;-70
2023/03/21 02:40:37;;;;;;;13.97;7.30;;;;;;;;;;5004015;28;20231;-70
2023/03/21 02:43:05;;;;;;;11.07;6.30;;;;;;;;;;5011515;28;20562;-70
2023/03/21 02:45:52;;;;;;;12.67;7.10;;;;;;;;;;5021427;28;20293;-70
2023/03/21 02:48:24;;;;;;;14.00;6.67;;;;;;;;;;4983400;28;20238;-70
2023/03/21 02:51:04;;;;;;;13.53;7.37;;;;;;;;;;5021097;28;20222;-70
2023/03/21 02:53:32;;;;;;;13.47;7.07;;;;;;;;;;5022905;28;20230;-70
2023/03/21 02:56:02;;;;;;;13.20;7.40;;;;;;;;;;4994771;28;20299;-70
2023/03/21 02:58:32;;;;;;;13.17;7.33;;;;;;;;;;4984166;28;20705;-70
2023/03/21 03:01:00;;;;;;;12.90;7.20;;;;;;;;;;5005589;28;20235;-71
2023/03/21 03:03:38;;;;;;;14.20;7.27;;;;;;;;;;5002145;28;20263;-70
2023/03/21 03:06:18;;;;;;;13.23;6.80;;;;;;;;;;5003603;28;20227;-70
2023/03/21 03:09:05;;;;;;;12.87;6.70;;;;;;;;;;4989011;28;20606;-70
2023/03/21 03:11:31;;;;;;;12.20;6.50;;;;;;;;;;5007948;28;31867;-70
2023/03/21 03:14:01;;;;;;;14.57;7.17;;;;;;;;;;5022821;28;20230;-70
2023/03/21 03:17:00;;;;;;;14.83;7.40;;;;;;;;;;4998856;28;20232;-70
2023/03/21 03:19:29;;;;;;;14.03;7.10;;;;;;;;;;4996239;28;20730;-70
2023/03/21 03:22:20;;;;;;;15.07;7.20;;;;;;;;;;4992902;28;20692;-70
2023/03/21 03:24:53;;;;;;;14.53;6.53;;;;;;;;;;4987511;28;20227;-70
2023/03/21 03:27:23;;;;;;;12.57;7.13;;;;;;;;;;4981474;28;20225;-70
2023/03/21 03:29:49;;;;;;;13.33;7.70;;;;;;;;;;5003037;28;20250;-71
2023/03/21 03:32:43;;;;;;;13.13;7.60;;;;;;;;;;4998309;28;20232;-70
2023/03/21 03:35:11;;;;;;;14.30;7.77;;;;;;;;;;5007984;28;20222;-70
2023/03/21 03:37:38;;;;;;;14.97;7.90;;;;;;;;;;5007336;28;20227;-70
2023/03/21 03:40:05;;;;;;;14.70;8.17;;;;;;;;;;5006028;28;20245;-70
2023/03/21 03:42:34;;;;;;;18.27;9.53;;;;;;;;;;5020864;28;20230;-69
2023/03/21 03:45:29;;;;;;;15.10;8.37;;;;;;;;;;5003706;28;20241;-70
2023/03/21 03:48:11;;;;;;;16.53;7.77;;;;;;;;;;4989308;28;20223;-70
2023/03/21 03:50:53;;;;;;;14.70;7.80;;;;;;;;;;4989550;28;20227;-70
2023/03/21 03:53:43;;;;;;;16.27;7.37;;;;;;;;;;4998935;28;20228;-70
2023/03/21 03:56:10;;;;;;;15.53;7.77;;;;;;;;;;4999622;28;20230;-70
2023/03/21 03:58:38;;;;;;;15.93;8.37;;;;;;;;;;4997245;28;20765;-70
2023/03/21 04:01:15;;;;;;;11.93;6.20;;;;;;;;;;4995679;28;20242;-70
2023/03/21 04:03:44;;;;;;;17.30;7.50;;;;;;;;;;5002932;28;20239;-70
2023/03/21 04:06:17;;;;;;;13.40;7.13;;;;;;;;;;4989486;28;20222;-70
2023/03/21 04:08:46;;;;;;;13.73;6.57;;;;;;;;;;5016367;28;20302;-70
2023/03/21 04:11:14;;;;;;;14.00;7.57;;;;;;;;;;5018154;28;20280;-70
2023/03/21 04:13:47;;;;;;;14.30;6.97;;;;;;;;;;5008212;28;20449;-70
2023/03/21 04:16:19;;;;;;;16.30;7.50;;;;;;;;;;4994120;28;20451;-70
2023/03/21 04:18:46;;;;;;;15.90;7.93;;;;;;;;;;5035050;28;20235;-70
2023/03/21 04:21:16;;;;;;;16.30;9.50;;;;;;;;;;5003708;28;20216;-71
2023/03/21 04:23:44;;;;;;;14.37;9.10;;;;;;;;;;5000892;28;20829;-69
2023/03/21 04:26:11;;;;;;;13.23;6.93;;;;;;;;;;5001342;28;20515;-70
2023/03/21 04:28:45;;;;;;;14.10;7.27;;;;;;;;;;5009577;28;20230;-73
2023/03/21 04:31:32;;;;;;;13.40;8.60;;;;;;;;;;4950108;28;20222;-75
2023/03/21 04:34:11;;;;;;;14.63;7.70;;;;;;;;;;4982735;28;21019;-74
2023/03/21 04:36:46;;;;;;;14.17;7.33;;;;;;;;;;4998890;28;20914;-74
2023/03/21 04:39:14;;;;;;;9.40;6.37;;;;;;;;;;4965310;28;20255;-73
2023/03/21 04:41:44;;;;;;;13.43;7.87;;;;;;;;;;4964317;28;20232;-74
2023/03/21 04:44:11;;;;;;;15.30;7.80;;;;;;;;;;4991265;28;20230;-75
2023/03/21 04:46:38;;;;;;;11.57;7.20;;;;;;;;;;5005422;28;20246;-75
2023/03/21 04:49:07;;;;;;;10.67;6.40;;;;;;;;;;5024650;28;20254;-74
2023/03/21 04:51:34;;;;;;;10.13;6.20;;;;;;;;;;4987748;28;20227;-73
2023/03/21 04:54:02;;;;;;;11.70;5.70;;;;;;;;;;4996792;28;20220;-70
2023/03/21 04:56:31;;;;;;;9.83;5.83;;;;;;;;;;4974037;28;20226;-73
2023/03/21 04:58:58;;;;;;;12.33;5.67;;;;;;;;;;4982159;28;20230;-71
2023/03/21 05:01:29;;;;;;;12.70;7.10;;;;;;;;;;5003187;28;20581;-71
2023/03/21 05:03:57;;;;;;;9.23;5.53;;;;;;;;;;4995837;28;20496;-70
2023/03/21 05:06:24;;;;;;;7.37;4.50;;;;;;;;;;5006575;28;20260;-72
2023/03/21 05:08:51;;;;;;;8.47;4.83;;;;;;;;;;5017206;28;20645;-74
2023/03/21 05:11:19;;;;;;;9.07;5.10;;;;;;;;;;5007784;28;21667;-71
2023/03/21 05:13:45;;;;;;;7.97;4.70;;;;;;;;;;4983815;28;20609;-70
2023/03/21 05:16:12;;;;;;;9.67;4.73;;;;;;;;;;5008873;28;21190;-71
2023/03/21 05:18:41;;;;;;;7.13;4.20;;;;;;;;;;4992159;28;20305;-71
2023/03/21 05:21:17;;;;;;;6.73;3.67;;;;;;;;;;5021258;28;20283;-70
2023/03/21 05:23:53;;;;;;;11.63;4.60;;;;;;;;;;5012228;28;20234;-71
2023/03/21 05:26:23;;;;;;;7.57;4.23;;;;;;;;;;5013650;28;20275;-70
2023/03/21 05:28:56;;;;;;;7.83;3.60;;;;;;;;;;4998350;28;20473;-70
2023/03/21 05:31:24;;;;;;;7.33;4.17;;;;;;;;;;4998100;28;20222;-70
2023/03/21 05:34:01;;;;;;;9.87;4.43;;;;;;;;;;4991984;28;20223;-70
2023/03/21 05:36:28;;;;;;;11.70;4.50;;;;;;;;;;5021662;28;20230;-71
2023/03/21 05:38:55;;;;;;;8.63;4.27;;;;;;;;;;4998307;28;20505;-70
2023/03/21 05:41:23;;;;;;;8.13;4.77;;;;;;;;;;4983021;28;20223;-73
2023/03/21 05:43:50;;;;;;;7.33;4.43;;;;;;;;;;4977766;28;216856;-71
2023/03/21 05:46:17;;;;;;;11.93;4.83;;;;;;;;;;4997669;28;20461;-71
2023/03/21 05:48:44;;;;;;;8.13;4.27;;;;;;;;;;5006648;28;20458;-71
2023/03/21 05:51:14;;;;;;;9.43;5.03;;;;;;;;;;4984328;28;20536;-71
2023/03/21 05:53:41;;;;;;;8.23;4.90;;;;;;;;;;5002507;28;20465;-71
2023/03/21 05:56:08;;;;;;;11.30;5.27;;;;;;;;;;5002094;28;20230;-73
2023/03/21 05:58:58;;;;;;;11.40;5.47;;;;;;;;;;4963422;28;20237;-70
2023/03/21 06:01:26;;;;;;;11.37;5.47;;;;;;;;;;4992434;28;20934;-70
2023/03/21 06:04:04;;;;;;;11.60;5.63;;;;;;;;;;4991068;28;20458;-73
2023/03/21 06:06:32;;;;;;;9.03;4.80;;;;;;;;;;4987900;28;20458;-70
2023/03/21 06:09:00;;;;;;;9.70;4.63;;;;;;;;;;4998626;28;20463;-70
2023/03/21 06:11:28;;;;;;;7.07;4.03;;;;;;;;;;4982947;28;20463;-70
2023/03/21 06:14:14;;;;;;;10.53;4.10;;;;;;;;;;4987604;28;20697;-70
2023/03/21 06:16:42;;;;;;;7.23;3.77;;;;;;;;;;4982390;28;20467;-70
2023/03/21 06:19:09;;;;;;;7.03;4.43;;;;;;;;;;4984885;28;20239;-71
2023/03/21 06:21:59;;;;;;;8.23;4.63;;;;;;;;;;4985958;28;21021;-70
2023/03/21 06:24:26;;;;;;;9.10;4.27;;;;;;;;;;5010177;28;21343;-71
2023/03/21 06:26:53;;;;;;;9.27;3.93;;;;;;;;;;5017437;28;20226;-72
2023/03/21 06:29:20;;;;;;;7.70;4.30;;;;;;;;;;4978706;28;20235;-72
2023/03/21 06:31:48;;;;;;;8.57;4.00;;;;;;;;;;5013743;28;20230;-69
2023/03/21 06:34:16;;;;;;;8.37;4.10;;;;;;;;;;4989540;28;20218;-70
2023/03/21 06:36:43;;;;;;;7.80;4.17;;;;;;;;;;5014825;28;20948;-69
2023/03/21 06:39:14;;;;;;;8.37;4.23;;;;;;;;;;5002024;28;20592;-70
2023/03/21 06:41:43;;;;;;;6.97;3.70;;;;;;;;;;4996367;28;20387;-70
2023/03/21 06:44:10;;;;;;;7.70;3.80;;;;;;;;;;5016795;28;20238;-69
2023/03/21 06:46:47;;;;;;;8.90;4.03;;;;;;;;;;5010343;28;20326;-69
2023/03/21 06:49:17;;;;;;;8.47;4.13;;;;;;;;;;5005625;28;20222;-69
2023/03/21 06:51:44;;;;;;;7.70;3.87;;;;;;;;;;5007078;28;21185;-69
2023/03/21 06:54:17;;;;;;;7.20;3.97;;;;;;;;;;4978747;28;20820;-70
2023/03/21 06:56:51;;;;;;;8.33;4.57;;;;;;;;;;5000928;28;20218;-70
2023/03/21 06:59:24;;;;;;;7.10;4.27;;;;;;;;;;5004266;28;20231;-72
2023/03/21 07:01:57;;;;;;;10.23;4.40;;;;;;;;;;5016925;28;20222;-71
2023/03/21 07:04:25;;;;;;;7.17;4.30;;;;;;;;;;4987369;28;20738;-68
2023/03/21 07:06:54;;;;;;;8.87;5.00;;;;;;;;;;5016416;28;20309;-70
2023/03/21 07:09:23;;;;;;;5.53;3.87;;;;;;;;;;5015929;28;20259;-70
2023/03/21 07:11:53;;;;;;;12.43;4.57;;;;;;;;;;4968550;28;20252;-70
2023/03/21 07:14:25;;;;;;;6.77;3.97;;;;;;;;;;4989005;28;20230;-69
2023/03/21 07:16:52;;;;;;;5.77;3.40;;;;;;;;;;5019887;28;20253;-70
2023/03/21 07:19:19;;;;;;;7.10;3.60;;;;;;;;;;5009084;28;20313;-70
2023/03/21 07:21:46;;;;;;;7.37;3.70;;;;;;;;;;5000066;28;20227;-69
2023/03/21 07:24:13;;;;;;;7.03;3.37;;;;;;;;;;4993453;28;20238;-71
2023/03/21 07:26:40;;;;;;;5.60;3.60;;;;;;;;;;5000595;28;20223;-67
2023/03/21 07:29:07;;;;;;;7.80;3.80;;;;;;;;;;5009095;28;20242;-65
2023/03/21 07:31:36;;;;;;;11.27;4.83;;;;;;;;;;5019174;28;20226;-65
2023/03/21 07:34:03;;;;;;;7.23;4.90;;;;;;;;;;5015541;28;20227;-66
2023/03/21 07:36:30;;;;;;;7.33;3.77;;;;;;;;;;4974002;28;20229;-67
2023/03/21 07:38:57;;;;;;;5.87;3.27;;;;;;;;;;5006538;28;20230;-66
2023/03/21 07:41:24;;;;;;;6.03;3.73;;;;;;;;;;5009254;28;20238;-68
2023/03/21 07:43:51;;;;;;;5.83;3.53;;;;;;;;;;4979675;28;20331;-68
2023/03/21 07:46:19;;;;;;;7.30;4.40;;;;;;;;;;4987137;28;20230;-68
2023/03/21 07:48:47;;;;;;;5.87;3.70;;;;;;;;;;5005615;28;20237;-66
2023/03/21 07:51:14;;;;;;;3.93;2.30;;;;;;;;;;4985604;28;20231;-67
2023/03/21 07:53:42;;;;;;;7.57;4.23;;;;;;;;;;4964569;28;20290;-68
2023/03/21 07:56:09;;;;;;;22.47;9.57;;;;;;;;;;4982082;28;20240;-68
2023/03/21 07:59:04;;;;;;;;;;;;;;;;;;;;;
2023/03/21 08:02:53;;;;;;;;;;;;;;;;;;;;;
2023/03/21 08:06:08;;;;;;;16.30;7.47;;;;;;;;;;4955691;28;20914;-67
2023/03/21 08:08:35;;;;;;;12.37;7.10;;;;;;;;;;4973172;28;20321;-67
2023/03/21 08:11:02;;;;;;;12.90;8.23;;;;;;;;;;4963286;28;20255;-66
2023/03/21 08:13:29;;;;;;;6.40;4.20;;;;;;;;;;4963347;28;20236;-67
2023/03/21 08:15:56;;;;;;;8.27;4.87;;;;;;;;;;4963760;28;20235;-67
2023/03/21 08:18:23;;;;;;;7.30;3.97;;;;;;;;;;4989542;28;20231;-67
2023/03/21 08:20:50;;;;;;;9.73;3.83;;;;;;;;;;5000199;28;20230;-67
2023/03/21 08:23:17;;;;;;;6.53;3.50;;;;;;;;;;5014716;28;20227;-65
2023/03/21 08:25:44;;;;;;;4.47;3.30;;;;;;;;;;5016305;28;20590;-65
2023/03/21 08:28:10;;;;;;;6.67;3.23;;;;;;;;;;5001580;28;20241;-66
2023/03/21 08:30:37;;;;;;;5.60;3.27;;;;;;;;;;4987894;28;20313;-66
2023/03/21 08:33:04;;;;;;;6.87;3.50;;;;;;;;;;4999883;28;20356;-65
2023/03/21 08:35:33;;;;;;;6.37;3.47;;;;;;;;;;5016849;28;20356;-66
2023/03/21 08:38:01;;;;;;;7.50;3.67;;;;;;;;;;5019810;28;21027;-66
2023/03/21 08:40:28;;;;;;;6.40;3.77;;;;;;;;;;5000243;28;20231;-64
2023/03/21 08:42:54;;;;;;;8.37;4.57;;;;;;;;;;5003845;28;20237;-66
2023/03/21 08:45:22;;;;;;;7.43;4.03;;;;;;;;;;4996787;28;20266;-66
2023/03/21 08:47:49;;;;;;;7.00;3.53;;;;;;;;;;4999098;28;20246;-66
2023/03/21 08:50:17;;;;;;;5.83;3.20;;;;;;;;;;4983788;28;20228;-66
2023/03/21 08:52:44;;;;;;;4.67;2.97;;;;;;;;;;4990315;28;20224;-66
2023/03/21 08:55:11;;;;;;;7.37;2.77;;;;;;;;;;4999799;28;20310;-66
2023/03/21 08:57:38;;;;;;;9.23;2.60;;;;;;;;;;4993855;28;20866;-65
2023/03/21 09:00:13;;;;;;;6.03;3.13;;;;;;;;;;4994099;28;20258;-66
2023/03/21 09:02:45;;;;;;;6.20;2.87;;;;;;;;;;4974442;28;20235;-65
2023/03/21 09:05:12;;;;;;;6.37;3.10;;;;;;;;;;4994905;28;20304;-66
2023/03/21 09:07:40;;;;;;;4.93;2.60;;;;;;;;;;4986214;28;20242;-67
2023/03/21 09:10:09;;;;;;;6.20;2.60;;;;;;;;;;4999446;28;20224;-67
2023/03/21 09:12:51;;;;;;;5.67;2.47;;;;;;;;;;4994051;28;20232;-66
2023/03/21 09:15:20;;;;;;;5.77;2.50;;;;;;;;;;4991556;28;20257;-66
2023/03/21 09:17:51;;;;;;;5.33;2.60;;;;;;;;;;5000525;28;20314;-64
2023/03/21 09:20:24;;;;;;;4.67;2.30;;;;;;;;;;4981686;28;20721;-66
2023/03/21 09:22:52;;;;;;;5.43;2.60;;;;;;;;;;4992258;28;20230;-66
2023/03/21 09:25:19;;;;;;;4.73;2.73;;;;;;;;;;5017694;28;20448;-66
2023/03/21 09:27:46;;;;;;;4.93;2.83;;;;;;;;;;5021721;28;20217;-65
2023/03/21 09:30:17;;;;;;;5.13;3.00;;;;;;;;;;5017295;28;20234;-67
2023/03/21 09:32:47;;;;;;;5.60;2.60;;;;;;;;;;5021012;28;20242;-66
2023/03/21 09:35:17;;;;;;;4.77;2.93;;;;;;;;;;5016334;28;20578;-66
2023/03/21 09:37:46;;;;;;;6.43;2.97;;;;;;;;;;5002038;28;20234;-67
2023/03/21 09:40:20;;;;;;;3.57;1.70;;;;;;;;;;4996878;28;20700;-67
2023/03/21 09:42:54;;;;;;;5.63;1.80;;;;;;;;;;5002518;28;20226;-66
2023/03/21 09:45:25;;;;;;;5.10;2.00;;;;;;;;;;5016228;28;20272;-65
2023/03/21 09:47:52;;;;;;;4.10;2.10;;;;;;;;;;5004910;28;20226;-67
2023/03/21 09:50:21;;;;;;;5.00;2.27;;;;;;;;;;5027411;28;20237;-66
2023/03/21 09:52:57;;;;;;;4.13;1.93;;;;;;;;;;5038314;28;20222;-66
2023/03/21 09:55:33;;;;;;;6.00;2.47;;;;;;;;;;4992103;28;20277;-65
2023/03/21 09:58:05;;;;;;;4.00;2.50;;;;;;;;;;5016089;28;20231;-68
2023/03/21 10:00:39;;;;;;;6.50;2.70;;;;;;;;;;5008587;28;20227;-65
2023/03/21 10:03:14;;;;;;;5.13;2.50;;;;;;;;;;4983352;28;20627;-66
2023/03/21 10:05:43;;;;;;;4.40;2.60;;;;;;;;;;4979438;28;20258;-66
2023/03/21 10:08:21;;;;;;;3.53;1.90;;;;;;;;;;4983321;28;20238;-67
2023/03/21 10:10:53;;;;;;;7.43;2.20;;;;;;;;;;5018941;28;20234;-67
2023/03/21 10:13:24;;;;;;;4.30;2.13;;;;;;;;;;4997049;28;20238;-67
2023/03/21 10:15:54;;;;;;;3.73;2.30;;;;;;;;;;5001589;28;20309;-67
2023/03/21 10:18:22;;;;;;;3.93;2.30;;;;;;;;;;4993767;28;24942;-68
2023/03/21 10:20:49;;;;;;;3.17;2.43;;;;;;;;;;5001475;28;20223;-68
2023/03/21 10:23:20;;;;;;;4.07;2.03;;;;;;;;;;5000435;28;20242;-67
2023/03/21 10:25:51;;;;;;;5.53;2.10;;;;;;;;;;5001274;28;20238;-66
2023/03/21 10:28:19;;;;;;;2.53;1.97;;;;;;;;;;4995077;28;20227;-66
2023/03/21 10:30:52;;;;;;;6.27;2.10;;;;;;;;;;4989795;28;20235;-65
2023/03/21 10:33:21;;;;;;;4.30;1.83;;;;;;;;;;4982008;28;20344;-66
2023/03/21 10:35:49;;;;;;;4.43;2.00;;;;;;;;;;4988699;28;20252;-65
2023/03/21 10:38:17;;;;;;;4.17;2.20;;;;;;;;;;4981174;28;20286;-67
2023/03/21 10:40:44;;;;;;;3.93;2.17;;;;;;;;;;4948976;28;20719;-67
2023/03/21 10:43:15;;;;;;;5.57;2.20;;;;;;;;;;5017544;28;20229;-67
2023/03/21 10:45:44;;;;;;;4.03;2.10;;;;;;;;;;5001787;28;20269;-67
2023/03/21 10:48:11;;;;;;;2.60;1.90;;;;;;;;;;4976482;28;20665;-65
2023/03/21 10:50:38;;;;;;;5.20;1.93;;;;;;;;;;4996869;28;20247;-64
2023/03/21 10:53:05;;;;;;;4.00;2.20;;;;;;;;;;4983797;28;20240;-66
2023/03/21 10:55:32;;;;;;;4.63;2.10;;;;;;;;;;4995623;28;20238;-67
2023/03/21 10:58:01;;;;;;;4.00;2.40;;;;;;;;;;4969272;28;20773;-66
2023/03/21 11:00:30;;;;;;;3.50;2.40;;;;;;;;;;4993032;28;20753;-67
2023/03/21 11:02:57;;;;;;;4.73;2.33;;;;;;;;;;4984692;28;20963;-65
2023/03/21 11:05:41;;;;;;;4.17;2.10;;;;;;;;;;4970527;28;20231;-67
2023/03/21 11:08:12;;;;;;;5.23;2.67;;;;;;;;;;4990212;28;20266;-65
2023/03/21 11:10:57;;;;;;;4.70;2.50;;;;;;;;;;4968350;28;20223;-67
2023/03/21 11:13:25;;;;;;;4.07;2.50;;;;;;;;;;4994622;28;24333;-65
2023/03/21 11:15:53;;;;;;;5.03;2.30;;;;;;;;;;4989606;28;20733;-64
2023/03/21 11:18:21;;;;;;;5.00;2.00;;;;;;;;;;4988081;28;20691;-65
2023/03/21 11:21:08;;;;;;;2.67;1.87;;;;;;;;;;4992177;28;20243;-66
2023/03/21 11:23:36;;;;;;;4.40;2.43;;;;;;;;;;4993771;28;20313;-64
2023/03/21 11:26:03;;;;;;;4.80;1.50;;;;;;;;;;4979000;28;20612;-66
2023/03/21 11:28:36;;;;;;;4.83;2.33;;;;;;;;;;4988847;28;20227;-66
2023/03/21 11:31:03;;;;;;;4.00;2.10;;;;;;;;;;5016599;28;20231;-66
2023/03/21 11:33:32;;;;;;;4.50;2.43;;;;;;;;;;4992805;28;20289;-66
2023/03/21 11:35:58;;;;;;;3.60;1.83;;;;;;;;;;5001681;28;20258;-66
2023/03/21 11:38:26;;;;;;;6.77;2.67;;;;;;;;;;5011392;28;20305;-65
2023/03/21 11:40:55;;;;;;;3.53;2.03;;;;;;;;;;4992368;28;20227;-66
2023/03/21 11:43:26;;;;;;;4.90;2.43;;;;;;;;;;5016180;28;20693;-65
2023/03/21 11:45:57;;;;;;;5.03;2.30;;;;;;;;;;5016863;28;20751;-66
2023/03/21 11:48:24;;;;;;;4.73;2.47;;;;;;;;;;5014050;28;20301;-65
2023/03/21 11:50:51;;;;;;;3.23;2.13;;;;;;;;;;5020886;28;20239;-64
2023/03/21 11:53:31;;;;;;;4.03;2.50;;;;;;;;;;5034507;28;20238;-64
2023/03/21 11:55:57;;;;;;;5.63;3.00;;;;;;;;;;5014029;28;20222;-66
2023/03/21 11:58:25;;;;;;;4.87;3.00;;;;;;;;;;5013972;28;20238;-66
2023/03/21 12:01:11;;;;;;;5.77;3.17;;;;;;;;;;5015514;28;20790;-66
2023/03/21 12:03:57;;;;;;;5.20;3.20;;;;;;;;;;5001702;28;20243;-66
2023/03/21 12:06:27;;;;;;;5.93;2.87;;;;;;;;;;4979769;28;20263;-65
2023/03/21 12:08:59;;;;;;;5.20;3.17;;;;;;;;;;4984555;28;20238;-66
2023/03/21 12:11:26;;;;;;;5.37;2.93;;;;;;;;;;4981996;28;20285;-66
2023/03/21 12:13:55;;;;;;;5.60;3.20;;;;;;;;;;4995854;28;20227;-66
2023/03/21 12:16:36;;;;;;;5.07;3.20;;;;;;;;;;4998621;28;20235;-66
2023/03/21 12:19:09;;;;;;;7.67;3.50;;;;;;;;;;4973034;28;20226;-68
2023/03/21 12:21:54;;;;;;;5.97;3.23;;;;;;;;;;4981377;28;20711;-68
2023/03/21 12:24:24;;;;;;;5.80;3.33;;;;;;;;;;4985755;28;20242;-65
2023/03/21 12:27:03;;;;;;;5.07;2.93;;;;;;;;;;4997491;28;24617;-65
2023/03/21 12:29:30;;;;;;;5.17;2.93;;;;;;;;;;4993198;28;20226;-67
2023/03/21 12:31:59;;;;;;;7.50;3.10;;;;;;;;;;5001714;28;20235;-66
2023/03/21 12:34:45;;;;;;;5.10;3.07;;;;;;;;;;5004804;28;20742;-66
2023/03/21 12:37:21;;;;;;;4.23;2.80;;;;;;;;;;4997771;28;20313;-67
2023/03/21 12:39:48;;;;;;;7.00;3.30;;;;;;;;;;4982230;28;20314;-65
2023/03/21 12:42:27;;;;;;;5.37;3.03;;;;;;;;;;4985337;28;20250;-65
2023/03/21 12:44:56;;;;;;;7.30;3.10;;;;;;;;;;5006139;28;20252;-66
2023/03/21 12:47:23;;;;;;;7.07;3.23;;;;;;;;;;5015156;28;20242;-67
2023/03/21 12:50:00;;;;;;;5.83;3.57;;;;;;;;;;4997805;28;20309;-65
2023/03/21 12:52:29;;;;;;;7.57;3.93;;;;;;;;;;4984888;28;20261;-67
2023/03/21 12:54:57;;;;;;;4.10;3.00;;;;;;;;;;4978993;28;20801;-68
2023/03/21 12:57:28;;;;;;;6.30;2.73;;;;;;;;;;4996311;28;20381;-66
2023/03/21 12:59:58;;;;;;;5.83;3.10;;;;;;;;;;4973015;28;20242;-66
2023/03/21 13:02:29;;;;;;;4.93;2.77;;;;;;;;;;4982532;28;20227;-66
2023/03/21 13:05:05;;;;;;;4.93;2.57;;;;;;;;;;4999173;28;20234;-65
2023/03/21 13:07:33;;;;;;;6.60;3.13;;;;;;;;;;5005016;28;20678;-66
2023/03/21 13:10:01;;;;;;;5.73;3.10;;;;;;;;;;4984173;28;20725;-66
2023/03/21 13:12:50;;;;;;;5.03;2.73;;;;;;;;;;4990927;28;20236;-67
2023/03/21 13:15:36;;;;;;;6.60;2.90;;;;;;;;;;4989526;28;20314;-67
2023/03/21 13:18:15;;;;;;;4.60;2.50;;;;;;;;;;5008481;28;20698;-68
2023/03/21 13:20:56;;;;;;;4.33;2.47;;;;;;;;;;5022119;28;20234;-68
2023/03/21 13:23:23;;;;;;;3.70;2.40;;;;;;;;;;5016884;28;20237;-67
2023/03/21 13:25:51;;;;;;;4.10;2.60;;;;;;;;;;5012106;28;20775;-67
2023/03/21 13:28:19;;;;;;;4.90;2.43;;;;;;;;;;4999660;28;20643;-67
2023/03/21 13:30:47;;;;;;;4.83;2.10;;;;;;;;;;4989840;28;20227;-67
2023/03/21 13:33:18;;;;;;;6.10;2.50;;;;;;;;;;5017391;28;20230;-67
2023/03/21 13:35:45;;;;;;;4.67;2.40;;;;;;;;;;4983402;28;20281;-66
2023/03/21 13:38:27;;;;;;;3.93;2.37;;;;;;;;;;4990627;28;20310;-67
2023/03/21 13:41:20;;;;;;;3.40;2.17;;;;;;;;;;5003548;28;20219;-67
2023/03/21 13:43:51;;;;;;;4.00;2.63;;;;;;;;;;4947710;28;20310;-69
2023/03/21 13:46:38;;;;;;;4.43;2.50;;;;;;;;;;4980960;28;20242;-67
2023/03/21 13:49:25;;;;;;;6.23;2.70;;;;;;;;;;4991580;28;20228;-68
2023/03/21 13:51:54;;;;;;;3.53;2.67;;;;;;;;;;4972044;28;20226;-68
2023/03/21 13:54:33;;;;;;;4.27;2.50;;;;;;;;;;5014492;28;20231;-67
2023/03/21 13:57:00;;;;;;;4.20;2.30;;;;;;;;;;5036350;28;20317;-65
2023/03/21 13:59:36;;;;;;;6.10;2.77;;;;;;;;;;4995822;28;20238;-66
2023/03/21 14:02:12;;;;;;;6.07;2.73;;;;;;;;;;5004589;28;20231;-67
2023/03/21 14:04:39;;;;;;;6.53;2.90;;;;;;;;;;5012976;28;20311;-66
2023/03/21 14:07:20;;;;;;;4.10;2.63;;;;;;;;;;5021579;28;20344;-67
2023/03/21 14:09:51;;;;;;;5.63;3.30;;;;;;;;;;5011960;28;20689;-67
2023/03/21 14:12:28;;;;;;;5.40;2.80;;;;;;;;;;4985850;28;22751;-67
2023/03/21 14:14:59;;;;;;;5.40;3.00;;;;;;;;;;4995036;28;20245;-67
2023/03/21 14:17:35;;;;;;;4.33;3.17;;;;;;;;;;4988409;28;20752;-66
2023/03/21 14:20:13;;;;;;;6.77;3.40;;;;;;;;;;4985731;28;20230;-66
2023/03/21 14:22:40;;;;;;;8.33;3.03;;;;;;;;;;5004308;28;20710;-64
2023/03/21 14:25:09;;;;;;;5.77;3.80;;;;;;;;;;5006952;28;20227;-67
2023/03/21 14:27:36;;;;;;;4.90;3.40;;;;;;;;;;5003306;28;20223;-67
2023/03/21 14:30:03;;;;;;;5.40;3.57;;;;;;;;;;5004552;28;21384;-66
2023/03/21 14:32:30;;;;;;;5.23;3.30;;;;;;;;;;5003695;28;20242;-67
2023/03/21 14:34:58;;;;;;;6.57;3.27;;;;;;;;;;5006246;28;20234;-67
2023/03/21 14:37:29;;;;;;;5.27;3.17;;;;;;;;;;4989349;28;20222;-67
2023/03/21 14:39:57;;;;;;;3.57;2.87;;;;;;;;;;5004307;28;20248;-67
2023/03/21 14:42:25;;;;;;;5.00;3.00;;;;;;;;;;5005943;28;20231;-67
2023/03/21 14:44:53;;;;;;;4.33;3.07;;;;;;;;;;4989179;28;20235;-67
2023/03/21 14:47:22;;;;;;;6.30;3.33;;;;;;;;;;5006067;28;20231;-67
2023/03/21 14:49:49;;;;;;;5.83;3.13;;;;;;;;;;4986182;28;20232;-67
2023/03/21 14:52:18;;;;;;;5.30;2.83;;;;;;;;;;4986256;28;22899;-67
2023/03/21 14:54:45;;;;;;;5.53;3.10;;;;;;;;;;5009252;28;20228;-67
2023/03/21 14:57:18;;;;;;;4.73;3.57;;;;;;;;;;4986041;28;23323;-67
2023/03/21 14:59:45;;;;;;;5.23;3.27;;;;;;;;;;4989913;28;20238;-67
2023/03/21 15:02:22;;;;;;;6.23;3.47;;;;;;;;;;4987960;28;20243;-67
2023/03/21 15:04:52;;;;;;;5.57;3.10;;;;;;;;;;5004034;28;20222;-67
2023/03/21 15:07:22;;;;;;;4.97;3.13;;;;;;;;;;4972099;28;20220;-66
2023/03/21 15:09:56;;;;;;;8.53;3.10;;;;;;;;;;4988733;28;20236;-67
2023/03/21 15:12:23;;;;;;;9.13;3.00;;;;;;;;;;4974613;28;20235;-67
2023/03/21 15:14:49;;;;;;;6.60;3.43;;;;;;;;;;4983218;28;20244;-67
2023/03/21 15:17:16;;;;;;;7.03;3.83;;;;;;;;;;4991042;28;20232;-67
2023/03/21 15:19:43;;;;;;;7.20;3.73;;;;;;;;;;4986916;28;20237;-66
2023/03/21 15:22:13;;;;;;;5.27;3.23;;;;;;;;;;4958715;28;20244;-66
2023/03/21 15:24:43;;;;;;;4.40;3.00;;;;;;;;;;4976412;28;20356;-66
2023/03/21 15:27:14;;;;;;;4.03;2.77;;;;;;;;;;4993006;28;20223;-66
2023/03/21 15:29:42;;;;;;;5.97;3.10;;;;;;;;;;5001956;28;20231;-66
2023/03/21 15:32:12;;;;;;;4.53;2.70;;;;;;;;;;5003668;28;20243;-66
2023/03/21 15:34:39;;;;;;;4.70;3.10;;;;;;;;;;5004993;28;20681;-67
2023/03/21 15:37:06;;;;;;;4.10;3.03;;;;;;;;;;5002711;28;20643;-66
2023/03/21 15:39:36;;;;;;;4.57;2.87;;;;;;;;;;5003266;28;20564;-67